Overview Statistics Trail Chart Weather Telemetry Raw packets
 

This is the latest recevied weather packets stored in our database for station/object KB1WCR. If no packets are shown the sender has not sent any weather packets the latest 10 day(s).

<< 110 111 112 113 114 >>
Time Temp. Humidity Pressure Rain* Wind** Luminosity Snow
1787596499 26.67° C 59% 1012.3 hPa 0 mm - 185 W/m² -
1787596193 28.33° C 54% 1012.3 hPa 0 mm - 220 W/m² -
1787595890 28.89° C 55% 1012.1 hPa 0 mm - 694 W/m² -
1787595585 28.89° C 50% 1012.3 hPa 0 mm - 721 W/m² -
1787595281 28.33° C 54% 1012.2 hPa 0 mm - 693 W/m² -
1787594980 28.89° C 54% 1012.3 hPa 0 mm - 676 W/m² -
1787594676 27.78° C 56% 1012.2 hPa 0 mm - 680 W/m² -
1787594374 27.22° C 58% 1012.3 hPa 0 mm - 715 W/m² -
1787594069 27.22° C 59% 1012.4 hPa 0 mm - 713 W/m² -
1787593763 26.11° C 73% 1012.4 hPa 0 mm - 755 W/m² -
1787593458 25.56° C 71% 1012.6 hPa 0 mm - 218 W/m² -
1787593148 25.56° C 73% 1012.5 hPa 0 mm - 720 W/m² -
1787592848 25.56° C 71% 1012.8 hPa 0 mm - 176 W/m² -
1787592542 26.67° C 70% 1012.5 hPa 0 mm - 154 W/m² -
1787592236 26.11° C 75% 1012.5 hPa 0 mm - 271 W/m² -
1787591932 26.67° C 73% 1012.6 hPa 0 mm - 192 W/m² -
1787591627 25.56° C 74% 1012.8 hPa 0 mm - 803 W/m² -
1787591323 25.56° C 75% 1012.6 hPa 0 mm - 798 W/m² -
1787591018 26.11° C 73% 1012.5 hPa 0 mm - 858 W/m² -
1787590714 27.22° C 71% 1012.5 hPa 0 mm - 195 W/m² -
1787590409 26.67° C 63% 1012.5 hPa 0 mm - 816 W/m² -
1787590104 26.67° C 63% 1012.7 hPa 0 mm - 777 W/m² -
1787589495 27.78° C 59% 1012.5 hPa 0 mm - 776 W/m² -
1787589190 26.67° C 64% 1012.4 hPa 0 mm - 747 W/m² -
1787588886 26.67° C 62% 1012.7 hPa 0 mm - 736 W/m² -

* Rain latest hour (hover to see other rain measurements)
** Current wind speed in m/s (hover to see current wind gust speed)